Terminal Aerodrome Forecast
Issued by NWS

Home | Current Version | Previous Version | Text Only | Print | Product List | Glossary On
Versions: 1 2 3 4 5 6 7 8 9 10 11 12 13 14 15 16 17 18 19 20
000
FTUS46 KSGX 230200 AAA
TAFONT
TAF AMD
KONT 230218Z 2302/2406 25012KT P6SM SKC
     FM230400 VRB04KT P6SM FEW009
     FM232000 25012KT P6SM SKC
     FM240400 VRB05KT P6SM SKC=

USA.gov is the U.S. government's official web portal to all federal, state and local government web resources and services.